Time;durP1;ratioP1;P1;durP2;ratioP2;P2;SDS_P1;SDS_P2;PMS_P1;PMS_P2;Temp;Humidity;BMP_temperature;BMP_pressure;BME280_temperature;BME280_humidity;BME280_pressure;Samples;Min_cycle;Max_cycle;Signal;HPM_P1;HPM_P2
2022/04/24 00:00:21;;;;;;;22.00;15.00;;;23.10;56.60;;;;;;5076686;28;20090;-76
2022/04/24 00:02:47;;;;;;;24.38;15.95;;;23.10;56.60;;;;;;5076569;28;20043;-76
2022/04/24 00:05:14;;;;;;;20.60;15.40;;;23.00;56.60;;;;;;5075970;28;20037;-76
2022/04/24 00:07:40;;;;;;;22.77;15.43;;;23.00;56.50;;;;;;5070846;28;20038;-76
2022/04/24 00:10:06;;;;;;;20.67;13.88;;;23.00;56.60;;;;;;5056442;28;20041;-76
2022/04/24 00:12:32;;;;;;;19.80;14.48;;;23.10;56.70;;;;;;5056328;28;20042;-76
2022/04/24 00:14:58;;;;;;;20.92;14.32;;;23.00;56.50;;;;;;5056157;28;20029;-77
2022/04/24 00:17:25;;;;;;;19.58;12.98;;;23.00;56.60;;;;;;5056385;28;20037;-76
2022/04/24 00:19:51;;;;;;;22.23;14.75;;;23.00;56.60;;;;;;5055722;28;20038;-76
2022/04/24 00:22:17;;;;;;;21.67;14.18;;;23.00;56.60;;;;;;5056415;28;20133;-76
2022/04/24 00:24:44;;;;;;;23.33;15.32;;;22.90;56.50;;;;;;5074669;28;20048;-76
2022/04/24 00:27:10;;;;;;;20.27;14.07;;;22.90;56.50;;;;;;5085468;28;20225;-76
2022/04/24 00:29:37;;;;;;;21.17;14.43;;;22.90;56.60;;;;;;5100681;28;20045;-76
2022/04/24 00:32:04;;;;;;;22.67;14.30;;;22.90;56.50;;;;;;5100596;28;20043;-76
2022/04/24 00:34:31;;;;;;;20.20;14.18;;;22.90;56.70;;;;;;5100243;28;20037;-76
2022/04/24 00:36:57;;;;;;;20.85;13.65;;;22.90;56.70;;;;;;5100596;28;20064;-76
2022/04/24 00:39:23;;;;;;;24.02;14.43;;;22.80;56.60;;;;;;5100523;28;20066;-76
2022/04/24 00:41:51;;;;;;;21.10;14.30;;;22.90;56.70;;;;;;5098409;28;20104;-75
2022/04/24 00:44:19;;;;;;;23.17;15.75;;;23.00;56.60;;;;;;5099076;28;20044;-76
2022/04/24 00:47:13;;;;;;;23.15;14.60;;;23.00;56.70;;;;;;5093297;28;20032;-77
2022/04/24 00:49:44;;;;;;;20.85;13.70;;;22.90;56.70;;;;;;5098797;28;20070;-77
2022/04/24 00:52:11;;;;;;;19.45;14.13;;;23.00;56.80;;;;;;5099356;28;20063;-74
2022/04/24 00:54:38;;;;;;;22.25;15.15;;;23.00;57.00;;;;;;5099472;28;20068;-74
2022/04/24 00:57:12;;;;;;;23.88;14.70;;;23.00;57.20;;;;;;5079525;28;20053;-76
2022/04/24 00:59:38;;;;;;;22.40;15.77;;;23.00;57.30;;;;;;5074176;28;20033;-76
2022/04/24 01:02:06;;;;;;;20.95;14.02;;;23.10;57.60;;;;;;5060120;28;20038;-76
2022/04/24 01:04:34;;;;;;;23.02;14.60;;;23.10;57.80;;;;;;5089012;28;20033;-75
2022/04/24 01:07:01;;;;;;;21.85;14.93;;;23.00;57.90;;;;;;5098338;28;20040;-76
2022/04/24 01:09:27;;;;;;;30.90;16.45;;;23.10;58.00;;;;;;5098360;28;20044;-76
2022/04/24 01:11:55;;;;;;;22.00;15.32;;;23.10;57.80;;;;;;5098619;28;20036;-77
2022/04/24 01:14:25;;;;;;;24.02;15.40;;;23.10;57.80;;;;;;5098073;28;20040;-77
2022/04/24 01:16:52;;;;;;;22.92;15.55;;;23.20;57.90;;;;;;5098382;28;20045;-76
2022/04/24 01:19:18;;;;;;;26.45;15.88;;;23.20;58.00;;;;;;5085990;28;20097;-77
2022/04/24 01:21:46;;;;;;;27.77;15.02;;;23.20;58.10;;;;;;5079584;28;20033;-77
2022/04/24 01:24:15;;;;;;;25.85;15.98;;;23.10;58.10;;;;;;5079112;28;20029;-77
2022/04/24 01:26:41;;;;;;;23.27;15.57;;;23.20;58.20;;;;;;5079084;28;20141;-77
2022/04/24 01:29:07;;;;;;;24.63;15.30;;;23.20;58.20;;;;;;5079221;28;20052;-77
2022/04/24 01:31:33;;;;;;;26.65;17.00;;;23.20;58.20;;;;;;5079343;28;20067;-79
2022/04/24 01:34:01;;;;;;;22.25;15.55;;;23.30;58.30;;;;;;5078735;28;20041;-78
2022/04/24 01:36:27;;;;;;;21.63;15.45;;;23.30;58.30;;;;;;5079057;28;20055;-76
2022/04/24 01:38:53;;;;;;;23.05;15.52;;;23.20;58.30;;;;;;5079032;28;20037;-76
2022/04/24 01:41:19;;;;;;;23.92;15.43;;;23.20;58.30;;;;;;5078530;28;20064;-76
2022/04/24 01:43:46;;;;;;;25.02;15.98;;;23.20;58.20;;;;;;5094590;28;20070;-76
2022/04/24 01:46:14;;;;;;;29.17;16.55;;;23.20;58.30;;;;;;5097806;28;20074;-77
2022/04/24 01:48:40;;;;;;;28.23;16.65;;;23.30;58.40;;;;;;5099258;28;20040;-77
2022/04/24 01:51:08;;;;;;;21.77;16.00;;;23.30;58.30;;;;;;5098483;28;20047;-74
2022/04/24 01:53:35;;;;;;;25.88;16.25;;;23.20;58.20;;;;;;5099033;28;20044;-75
2022/04/24 01:56:06;;;;;;;23.38;15.10;;;23.20;58.10;;;;;;5098371;28;20044;-76
2022/04/24 01:58:33;;;;;;;25.95;16.17;;;23.20;58.20;;;;;;5098861;28;20066;-76
2022/04/24 02:01:00;;;;;;;27.13;16.90;;;23.10;58.10;;;;;;5082433;28;20070;-76
2022/04/24 02:03:28;;;;;;;28.02;16.48;;;23.10;58.20;;;;;;5098836;28;20044;-75
2022/04/24 02:05:55;;;;;;;26.80;16.20;;;23.10;58.20;;;;;;5098752;28;20055;-75
2022/04/24 02:08:21;;;;;;;21.38;14.73;;;23.10;58.40;;;;;;5098055;28;20040;-76
2022/04/24 02:10:47;;;;;;;22.52;15.45;;;23.10;58.60;;;;;;5098803;28;20037;-76
2022/04/24 02:13:13;;;;;;;19.50;13.85;;;23.00;58.60;;;;;;5098587;28;20099;-76
2022/04/24 02:15:40;;;;;;;20.98;15.15;;;23.10;58.70;;;;;;5098312;28;20032;-76
2022/04/24 02:18:07;;;;;;;21.98;15.65;;;23.10;58.70;;;;;;5097967;28;20028;-77
2022/04/24 02:20:33;;;;;;;21.92;14.30;;;23.00;58.70;;;;;;5091089;28;20045;-77
2022/04/24 02:22:59;;;;;;;24.58;15.23;;;23.10;58.70;;;;;;5077796;28;20044;-78
2022/04/24 02:25:27;;;;;;;24.80;15.38;;;23.10;58.70;;;;;;5077985;28;20037;-76
2022/04/24 02:27:55;;;;;;;22.08;14.13;;;23.10;58.80;;;;;;5078436;28;20042;-77
2022/04/24 02:30:22;;;;;;;24.15;15.38;;;23.10;58.70;;;;;;5077538;28;20052;-76
2022/04/24 02:32:48;;;;;;;22.45;15.25;;;23.00;58.60;;;;;;5078152;28;20033;-77
2022/04/24 02:35:15;;;;;;;20.65;15.18;;;23.00;58.70;;;;;;5078212;28;20037;-78
2022/04/24 02:37:42;;;;;;;22.30;15.30;;;23.10;58.70;;;;;;5078190;28;20036;-78
2022/04/24 02:40:09;;;;;;;22.80;15.10;;;23.00;58.70;;;;;;5047252;28;20041;-79
2022/04/24 02:42:37;;;;;;;24.05;16.35;;;23.10;58.80;;;;;;5057711;28;20049;-78
2022/04/24 02:45:08;;;;;;;23.42;16.20;;;23.00;58.70;;;;;;5070003;28;20060;-79
2022/04/24 02:47:35;;;;;;;24.63;16.10;;;23.00;58.70;;;;;;5057946;28;20040;-79
2022/04/24 02:50:01;;;;;;;24.95;16.23;;;22.90;58.70;;;;;;5064901;28;20037;-79
2022/04/24 02:52:27;;;;;;;21.75;16.00;;;23.00;58.80;;;;;;5078043;28;20063;-79
2022/04/24 02:54:54;;;;;;;30.33;17.20;;;22.90;58.80;;;;;;5060517;28;20040;-78
2022/04/24 02:57:20;;;;;;;27.80;16.85;;;22.90;58.90;;;;;;5077822;28;20059;-79
2022/04/24 02:59:49;;;;;;;25.48;17.95;;;22.90;59.00;;;;;;5077531;28;20037;-78
2022/04/24 03:02:18;;;;;;;29.73;18.65;;;22.90;59.00;;;;;;5077164;28;20040;-78
2022/04/24 03:04:46;;;;;;;30.55;17.60;;;22.90;59.00;;;;;;5077428;28;20033;-79
2022/04/24 03:07:12;;;;;;;26.92;17.38;;;23.00;58.90;;;;;;5077715;28;20041;-79
2022/04/24 03:09:39;;;;;;;22.73;15.30;;;22.80;58.90;;;;;;5077397;28;20068;-78
2022/04/24 03:12:05;;;;;;;23.05;14.68;;;22.90;59.00;;;;;;5077733;28;20040;-78
2022/04/24 03:14:32;;;;;;;24.73;15.57;;;23.00;59.00;;;;;;5077138;28;20041;-78
2022/04/24 03:16:58;;;;;;;26.17;15.98;;;23.00;59.00;;;;;;5076880;28;20048;-78
2022/04/24 03:19:24;;;;;;;22.42;15.43;;;23.00;59.00;;;;;;5095197;28;20035;-74
2022/04/24 03:21:50;;;;;;;19.35;14.35;;;23.10;59.10;;;;;;5097218;28;20103;-74
2022/04/24 03:24:17;;;;;;;21.90;15.73;;;22.90;59.00;;;;;;5097246;28;20036;-74
2022/04/24 03:26:43;;;;;;;27.17;16.02;;;23.00;59.00;;;;;;5097156;28;20115;-76
2022/04/24 03:29:09;;;;;;;26.50;16.45;;;22.90;59.00;;;;;;5096990;28;20036;-77
2022/04/24 03:31:35;;;;;;;25.10;16.30;;;22.90;58.90;;;;;;5097179;28;20058;-77
2022/04/24 03:34:02;;;;;;;26.55;16.00;;;23.00;58.90;;;;;;5096915;28;20044;-78
2022/04/24 03:36:27;;;;;;;29.83;17.05;;;22.90;58.90;;;;;;5096794;28;20074;-77
2022/04/24 03:38:54;;;;;;;26.55;16.95;;;22.90;59.00;;;;;;5078026;28;20101;-80
2022/04/24 03:41:20;;;;;;;24.88;16.10;;;22.90;59.00;;;;;;5076893;28;20051;-80
2022/04/24 03:43:46;;;;;;;21.15;14.32;;;22.90;59.00;;;;;;5076131;28;20047;-75
2022/04/24 03:46:13;;;;;;;22.23;12.93;;;22.80;59.00;;;;;;5075854;28;20036;-75
2022/04/24 03:48:39;;;;;;;19.67;12.82;;;22.90;58.90;;;;;;5076591;28;20072;-76
2022/04/24 03:51:07;;;;;;;22.95;13.43;;;23.00;58.40;;;;;;5076602;28;20059;-76
2022/04/24 03:53:33;;;;;;;22.17;12.93;;;23.10;58.20;;;;;;5076814;28;20045;-76
2022/04/24 03:56:01;;;;;;;23.00;14.13;;;23.20;57.90;;;;;;5063446;28;20035;-76
2022/04/24 03:58:27;;;;;;;19.08;12.45;;;23.20;57.50;;;;;;5096703;28;20036;-76
2022/04/24 04:00:55;;;;;;;23.10;15.00;;;23.30;57.30;;;;;;5094760;28;20051;-75
2022/04/24 04:03:21;;;;;;;22.08;15.45;;;23.40;57.00;;;;;;5096028;28;20064;-78
2022/04/24 04:05:47;;;;;;;19.23;12.30;;;23.30;58.50;;;;;;5096076;28;20047;-71
2022/04/24 04:08:13;;;;;;;21.08;13.25;;;23.40;60.00;;;;;;5095177;28;20029;-72
2022/04/24 04:10:39;;;;;;;23.95;15.25;;;23.50;60.20;;;;;;5061067;28;20034;-74
2022/04/24 04:13:07;;;;;;;24.65;14.73;;;23.70;60.30;;;;;;5055072;28;20046;-71
2022/04/24 04:15:33;;;;;;;20.48;14.85;;;23.90;60.70;;;;;;5066921;28;20058;-73
2022/04/24 04:17:59;;;;;;;20.60;14.98;;;23.90;60.30;;;;;;5095858;28;20041;-71
2022/04/24 04:20:26;;;;;;;23.35;15.95;;;24.10;59.50;;;;;;5096005;28;20078;-72
2022/04/24 04:22:52;;;;;;;23.95;15.55;;;23.90;57.30;;;;;;5095770;28;20043;-72
2022/04/24 04:25:21;;;;;;;22.27;15.45;;;24.10;56.20;;;;;;5095152;28;20033;-71
2022/04/24 04:27:48;;;;;;;24.40;15.45;;;23.90;55.10;;;;;;5095988;28;20037;-70
2022/04/24 04:30:14;;;;;;;22.52;15.45;;;23.90;54.60;;;;;;5095846;28;20047;-70
2022/04/24 04:32:40;;;;;;;24.98;15.00;;;24.10;54.20;;;;;;5095529;28;20044;-71
2022/04/24 04:35:09;;;;;;;22.60;16.02;;;23.90;53.70;;;;;;5084353;28;20041;-69
2022/04/24 04:37:39;;;;;;;21.10;15.70;;;24.00;53.30;;;;;;5075461;28;20060;-68
2022/04/24 04:40:07;;;;;;;22.63;15.57;;;23.90;53.00;;;;;;5075366;28;20037;-68
2022/04/24 04:42:34;;;;;;;20.98;14.88;;;23.90;52.70;;;;;;5065906;28;20096;-67
2022/04/24 04:45:00;;;;;;;22.20;15.55;;;23.90;52.40;;;;;;5055518;28;20040;-69
2022/04/24 04:47:30;;;;;;;24.08;16.17;;;24.00;52.20;;;;;;5055608;28;20049;-70
2022/04/24 04:49:56;;;;;;;24.48;15.02;;;24.00;52.00;;;;;;5055568;28;20061;-70
2022/04/24 04:52:23;;;;;;;23.88;15.77;;;23.90;52.00;;;;;;5055379;28;20045;-71
2022/04/24 04:54:49;;;;;;;26.80;16.13;;;23.90;51.90;;;;;;5124502;28;20037;-70
2022/04/24 04:57:16;;;;;;;27.27;16.90;;;23.90;51.80;;;;;;5095493;28;20044;-70
2022/04/24 04:59:42;;;;;;;24.95;14.73;;;23.80;51.40;;;;;;5095489;28;20059;-73
2022/04/24 05:02:08;;;;;;;21.55;13.90;;;23.90;51.50;;;;;;5095508;28;20104;-72
2022/04/24 05:04:35;;;;;;;17.10;11.30;;;23.80;51.40;;;;;;5095322;28;20060;-74
2022/04/24 05:07:01;;;;;;;14.80;9.75;;;23.80;50.10;;;;;;5094730;28;20068;-74
2022/04/24 05:09:27;;;;;;;15.85;10.15;;;23.80;49.30;;;;;;5095531;28;20041;-74
2022/04/24 05:11:53;;;;;;;19.85;13.23;;;23.60;49.20;;;;;;5092493;28;20041;-75
2022/04/24 05:14:20;;;;;;;13.27;9.20;;;23.70;47.00;;;;;;5071382;28;20094;-75
2022/04/24 05:16:47;;;;;;;14.48;9.70;;;23.60;48.30;;;;;;5059089;28;20041;-74
2022/04/24 05:19:13;;;;;;;14.63;7.78;;;23.50;47.50;;;;;;5058892;28;20033;-73
2022/04/24 05:21:39;;;;;;;21.80;13.27;;;23.50;48.60;;;;;;5058642;28;20041;-73
2022/04/24 05:24:06;;;;;;;19.98;10.18;;;23.50;48.30;;;;;;5058194;28;20038;-72
2022/04/24 05:26:32;;;;;;;8.18;5.93;;;23.50;48.40;;;;;;5058911;28;20100;-73
2022/04/24 05:28:58;;;;;;;6.20;4.22;;;23.60;54.20;;;;;;5066988;28;20048;-75
2022/04/24 05:31:24;;;;;;;10.05;5.10;;;23.70;56.80;;;;;;5086404;28;20041;-70
2022/04/24 05:33:50;;;;;;;3.85;3.15;;;23.80;57.20;;;;;;5098580;28;20074;-71
2022/04/24 05:36:16;;;;;;;13.57;7.13;;;23.90;57.80;;;;;;5098528;28;20040;-75
2022/04/24 05:38:42;;;;;;;15.20;8.27;;;23.90;58.80;;;;;;5090293;28;20033;-73
2022/04/24 05:41:08;;;;;;;12.65;6.28;;;24.00;59.40;;;;;;5078426;28;20047;-73
2022/04/24 05:43:34;;;;;;;14.70;9.57;;;23.90;58.80;;;;;;5078411;28;20045;-73
2022/04/24 05:46:01;;;;;;;11.63;6.72;;;24.10;56.20;;;;;;5077236;28;20417;-75
2022/04/24 05:48:27;;;;;;;10.63;5.72;;;24.10;56.30;;;;;;5057707;28;20052;-67
2022/04/24 05:50:53;;;;;;;11.75;7.28;;;24.10;56.80;;;;;;5077137;28;20047;-67
2022/04/24 05:53:19;;;;;;;12.65;8.10;;;24.00;56.80;;;;;;5098529;28;20037;-67
2022/04/24 05:55:46;;;;;;;15.43;7.65;;;24.10;57.30;;;;;;5097697;28;20041;-68
2022/04/24 05:58:12;;;;;;;11.25;6.18;;;24.10;57.20;;;;;;5098469;28;20036;-69
2022/04/24 06:00:38;;;;;;;24.17;15.63;;;24.20;56.50;;;;;;5098447;28;20067;-70
2022/04/24 06:03:05;;;;;;;23.45;13.88;;;24.20;56.30;;;;;;5098310;28;20054;-70
2022/04/24 06:05:32;;;;;;;22.98;14.13;;;24.10;55.90;;;;;;5098178;28;20112;-69
2022/04/24 06:07:58;;;;;;;22.33;14.90;;;24.20;55.60;;;;;;5098379;28;20068;-69
2022/04/24 06:10:24;;;;;;;22.15;15.38;;;24.20;55.90;;;;;;5087368;28;20135;-69
2022/04/24 06:12:52;;;;;;;20.77;13.15;;;24.20;56.30;;;;;;5077960;28;20045;-68
2022/04/24 06:15:21;;;;;;;27.13;14.45;;;24.20;56.60;;;;;;5060322;28;20037;-70
2022/04/24 06:17:52;;;;;;;19.23;13.27;;;24.10;56.70;;;;;;5077693;28;20068;-69
2022/04/24 06:20:20;;;;;;;20.45;13.30;;;24.10;56.90;;;;;;5057840;28;20061;-70
2022/04/24 06:22:53;;;;;;;6.78;4.40;;;24.10;56.70;;;;;;5057645;28;20045;-69
2022/04/24 06:25:24;;;;;;;;;;;24.30;57.30;;;;;;5056857;28;20060;-69
2022/04/24 06:27:52;;;;;;;18.40;12.05;;;24.30;55.70;;;;;;5059637;28;19912;-69
2022/04/24 06:30:23;;;;;;;24.15;13.65;;;24.30;55.70;;;;;;5079979;28;20045;-68
2022/04/24 06:32:49;;;;;;;21.88;14.07;;;24.30;55.80;;;;;;5085891;28;20063;-70
2022/04/24 06:35:16;;;;;;;19.15;12.57;;;24.20;56.10;;;;;;5084978;28;20052;-69
2022/04/24 06:37:47;;;;;;;16.70;10.65;;;24.10;56.00;;;;;;5083987;28;20041;-68
2022/04/24 06:40:16;;;;;;;21.08;14.43;;;24.10;55.90;;;;;;5086763;28;20040;-76
2022/04/24 06:43:02;;;;;;;20.10;12.90;;;24.10;52.70;;;;;;5081984;28;20075;-75
2022/04/24 06:45:42;;;;;;;21.00;14.05;;;24.10;55.00;;;;;;5083265;28;20041;-75
2022/04/24 06:48:10;;;;;;;22.23;14.77;;;24.20;53.20;;;;;;5078611;28;20104;-71
2022/04/24 06:50:46;;;;;;;22.23;15.52;;;23.90;50.80;;;;;;5076932;28;20047;-70
2022/04/24 06:53:17;;;;;;;24.70;14.48;;;23.80;50.20;;;;;;5069500;28;20044;-70
2022/04/24 06:55:44;;;;;;;21.80;14.45;;;23.70;51.40;;;;;;5075469;28;20052;-74
2022/04/24 06:58:12;;;;;;;19.35;13.65;;;23.50;57.60;;;;;;5076818;28;20068;-74
2022/04/24 07:00:44;;;;;;;21.20;13.02;;;23.60;55.80;;;;;;5076187;28;20037;-74
2022/04/24 07:03:20;;;;;;;21.15;14.27;;;23.50;56.20;;;;;;5073350;28;20067;-73
2022/04/24 07:05:49;;;;;;;20.40;14.52;;;23.60;55.70;;;;;;5074416;28;20037;-73
2022/04/24 07:08:15;;;;;;;22.45;14.02;;;23.60;56.20;;;;;;5074630;28;20040;-74
2022/04/24 07:10:41;;;;;;;21.17;14.57;;;23.60;56.20;;;;;;5074609;28;20045;-73
2022/04/24 07:13:07;;;;;;;23.75;15.63;;;23.60;56.50;;;;;;5074469;28;20044;-73
2022/04/24 07:15:39;;;;;;;22.60;14.75;;;23.60;56.50;;;;;;5074091;28;20040;-71
2022/04/24 07:18:07;;;;;;;22.48;16.13;;;23.70;56.80;;;;;;5075017;28;20067;-72
2022/04/24 07:20:34;;;;;;;20.98;14.98;;;23.70;56.10;;;;;;5074610;28;20029;-73
2022/04/24 07:23:02;;;;;;;21.85;14.93;;;23.80;56.50;;;;;;5074750;28;20033;-74
2022/04/24 07:25:43;;;;;;;23.30;15.13;;;23.80;56.80;;;;;;5074417;28;20131;-71
2022/04/24 07:28:13;;;;;;;24.48;14.70;;;23.80;56.70;;;;;;5074226;28;20041;-71
2022/04/24 07:30:40;;;;;;;20.98;14.18;;;23.70;57.00;;;;;;5074622;28;20075;-72
2022/04/24 07:33:06;;;;;;;21.90;15.52;;;23.70;57.40;;;;;;5074431;28;20130;-75
2022/04/24 07:35:35;;;;;;;23.42;14.30;;;23.80;57.40;;;;;;5073663;28;20070;-74
2022/04/24 07:38:02;;;;;;;23.17;14.18;;;23.70;57.30;;;;;;5073978;28;20071;-70
2022/04/24 07:40:35;;;;;;;23.77;15.00;;;23.80;57.60;;;;;;5074320;28;20036;-69
2022/04/24 07:43:02;;;;;;;;;;;23.70;57.40;;;;;;5074132;28;20045;-71
2022/04/24 07:45:43;;;;;;;22.73;14.63;;;23.70;57.20;;;;;;5073981;28;19904;-71
2022/04/24 07:48:11;;;;;;;18.52;13.52;;;23.70;57.60;;;;;;5074077;28;20048;-73
2022/04/24 07:50:48;;;;;;;18.05;12.05;;;23.70;57.70;;;;;;5074234;28;20045;-70
2022/04/24 07:53:14;;;;;;;21.52;14.07;;;23.70;57.70;;;;;;5076127;28;20105;-69
2022/04/24 07:55:42;;;;;;;21.55;13.23;;;23.80;57.50;;;;;;5075508;28;20048;-70
2022/04/24 07:58:09;;;;;;;22.75;14.02;;;23.80;57.60;;;;;;5076161;28;20037;-70
2022/04/24 08:00:35;;;;;;;15.63;10.68;;;23.80;56.10;;;;;;5075957;28;20041;-70
2022/04/24 08:03:11;;;;;;;15.18;10.02;;;23.80;57.30;;;;;;5075931;28;20037;-69
2022/04/24 08:05:43;;;;;;;15.43;11.43;;;23.80;57.10;;;;;;5064163;28;20033;-69
2022/04/24 08:08:10;;;;;;;14.68;11.25;;;23.90;57.30;;;;;;5075292;28;20033;-71
2022/04/24 08:10:39;;;;;;;18.58;12.38;;;23.90;57.20;;;;;;5073700;28;20048;-75
2022/04/24 08:13:05;;;;;;;20.10;12.60;;;23.80;56.90;;;;;;5072832;28;20044;-72
2022/04/24 08:15:34;;;;;;;21.85;12.52;;;23.80;56.80;;;;;;5074886;28;20068;-72
2022/04/24 08:18:01;;;;;;;19.45;11.88;;;23.90;56.80;;;;;;5075079;28;20068;-73
2022/04/24 08:20:27;;;;;;;18.65;13.00;;;23.80;56.70;;;;;;5070668;28;20037;-72
2022/04/24 08:22:55;;;;;;;14.88;9.93;;;23.80;56.50;;;;;;5070596;28;20048;-67
2022/04/24 08:25:23;;;;;;;14.32;9.73;;;23.80;56.70;;;;;;5067738;28;20037;-72
2022/04/24 08:27:51;;;;;;;15.60;10.73;;;24.00;56.60;;;;;;5074638;28;20109;-73
2022/04/24 08:30:18;;;;;;;17.35;12.10;;;23.90;56.10;;;;;;5071300;28;20045;-73
2022/04/24 08:32:45;;;;;;;12.73;9.40;;;23.90;54.60;;;;;;5065516;28;20042;-72
2022/04/24 08:35:14;;;;;;;16.02;10.50;;;23.90;56.00;;;;;;5072144;28;20064;-72
2022/04/24 08:37:41;;;;;;;19.15;11.00;;;23.80;55.10;;;;;;5076229;28;20096;-72
2022/04/24 08:40:24;;;;;;;13.68;9.73;;;23.80;57.30;;;;;;5074116;28;20041;-73
2022/04/24 08:42:52;;;;;;;14.80;9.63;;;23.80;59.30;;;;;;5062433;28;20064;-75
2022/04/24 08:45:22;;;;;;;16.55;9.82;;;23.90;57.60;;;;;;5067956;28;20402;-72
2022/04/24 08:47:50;;;;;;;13.75;10.02;;;23.80;57.60;;;;;;5064000;28;20033;-70
2022/04/24 08:50:16;;;;;;;13.05;9.20;;;23.80;55.70;;;;;;5071261;28;20044;-72
2022/04/24 08:52:44;;;;;;;14.55;9.88;;;23.80;56.00;;;;;;5074005;28;20037;-73
2022/04/24 08:55:11;;;;;;;11.32;7.80;;;23.80;51.50;;;;;;5075122;28;20056;-73
2022/04/24 08:57:37;;;;;;;12.50;8.35;;;23.80;56.40;;;;;;5058818;28;20033;-73
2022/04/24 09:00:07;;;;;;;15.63;11.07;;;23.80;56.70;;;;;;5077977;28;20041;-73
2022/04/24 09:02:34;;;;;;;12.38;7.03;;;23.80;50.40;;;;;;5077304;28;20036;-69
2022/04/24 09:05:00;;;;;;;13.18;7.95;;;23.90;56.40;;;;;;5077598;28;20044;-68
2022/04/24 09:07:31;;;;;;;11.35;7.18;;;23.80;56.50;;;;;;5077225;28;20105;-69
2022/04/24 09:09:58;;;;;;;14.38;7.97;;;23.90;56.50;;;;;;5078753;28;20041;-68
2022/04/24 09:12:26;;;;;;;13.05;8.68;;;24.00;56.40;;;;;;5078134;28;20100;-68
2022/04/24 09:14:57;;;;;;;11.18;8.45;;;24.10;56.50;;;;;;5078652;28;20066;-69
2022/04/24 09:17:34;;;;;;;13.63;7.43;;;24.00;56.20;;;;;;5078994;28;20051;-68
2022/04/24 09:20:15;;;;;;;12.35;7.57;;;24.10;56.80;;;;;;5078521;28;20037;-68
2022/04/24 09:22:42;;;;;;;13.10;7.28;;;24.00;56.60;;;;;;5078990;28;20028;-70
2022/04/24 09:25:10;;;;;;;7.93;4.70;;;24.00;56.90;;;;;;5078661;28;20033;-68
2022/04/24 09:27:36;;;;;;;11.77;5.80;;;24.10;56.50;;;;;;5078151;28;20086;-68
2022/04/24 09:30:09;;;;;;;13.43;8.80;;;24.10;56.20;;;;;;5078526;28;20100;-69
2022/04/24 09:32:47;;;;;;;;;;;24.10;54.50;;;;;;5059275;28;20029;-69
2022/04/24 09:35:47;;;;;;;7.53;4.82;;;24.00;53.40;;;;;;5073887;28;19916;-69
2022/04/24 09:38:17;;;;;;;18.80;8.50;;;24.10;52.20;;;;;;5078309;28;20047;-69
2022/04/24 09:40:50;;;;;;;6.43;3.97;;;24.30;50.20;;;;;;5078338;28;20044;-69
2022/04/24 09:43:19;;;;;;;;;;;24.30;50.50;;;;;;5078362;28;20041;-69
2022/04/24 09:45:51;;;;;;;10.10;7.13;;;24.30;49.50;;;;;;5077956;28;19908;-70
2022/04/24 09:48:19;;;;;;;11.35;7.35;;;24.30;47.80;;;;;;5078571;28;20047;-69
2022/04/24 09:50:48;;;;;;;8.30;5.57;;;24.30;47.60;;;;;;5077591;28;20051;-69
2022/04/24 09:53:20;;;;;;;11.32;6.97;;;24.30;48.20;;;;;;5080571;28;20045;-69
2022/04/24 09:55:51;;;;;;;10.35;6.80;;;24.30;48.40;;;;;;5098217;28;20079;-69
2022/04/24 09:58:18;;;;;;;9.95;6.03;;;24.40;48.90;;;;;;5097572;28;20027;-70
2022/04/24 10:00:44;;;;;;;8.18;5.50;;;24.30;49.00;;;;;;5097946;28;20037;-69
2022/04/24 10:03:14;;;;;;;7.85;4.38;;;24.30;48.30;;;;;;5098212;28;20040;-69
2022/04/24 10:05:48;;;;;;;8.23;5.68;;;24.30;47.60;;;;;;5097492;28;20036;-68
2022/04/24 10:08:18;;;;;;;7.45;5.88;;;24.40;47.00;;;;;;5097392;28;20037;-69
2022/04/24 10:10:44;;;;;;;8.73;4.85;;;24.30;48.70;;;;;;5079539;28;20045;-68
2022/04/24 10:13:12;;;;;;;7.18;5.70;;;24.40;47.00;;;;;;5058072;28;20041;-68
2022/04/24 10:15:51;;;;;;;10.02;5.68;;;24.30;45.50;;;;;;5056765;28;20045;-68
2022/04/24 10:18:17;;;;;;;6.57;5.32;;;24.30;46.20;;;;;;5057343;28;20052;-68
2022/04/24 10:20:58;;;;;;;6.22;5.38;;;24.30;46.90;;;;;;5057693;28;20045;-69
2022/04/24 10:23:36;;;;;;;10.15;5.50;;;24.20;47.00;;;;;;5057004;28;20047;-69
2022/04/24 10:26:04;;;;;;;5.30;3.17;;;24.30;46.30;;;;;;5057160;28;20049;-67
2022/04/24 10:28:38;;;;;;;6.10;4.10;;;24.30;47.10;;;;;;5095587;28;20040;-66
2022/04/24 10:31:07;;;;;;;16.10;7.13;;;24.30;49.80;;;;;;5097469;28;20044;-67
2022/04/24 10:33:35;;;;;;;9.75;6.43;;;24.70;53.80;;;;;;5097692;28;20035;-67
2022/04/24 10:36:15;;;;;;;6.65;3.63;;;25.20;52.40;;;;;;5097010;28;20036;-66
2022/04/24 10:38:59;;;;;;;9.30;5.70;;;25.30;49.50;;;;;;5083094;28;20040;-72
2022/04/24 10:41:29;;;;;;;8.40;4.70;;;25.20;46.30;;;;;;5076867;28;20053;-73
2022/04/24 10:44:08;;;;;;;9.25;5.63;;;25.10;45.50;;;;;;5076130;28;20076;-71
2022/04/24 10:46:42;;;;;;;8.05;5.70;;;25.00;45.10;;;;;;5084961;28;20044;-76
2022/04/24 10:49:10;;;;;;;6.38;4.72;;;25.10;45.20;;;;;;5097335;28;20124;-70
2022/04/24 10:51:39;;;;;;;7.65;4.40;;;25.30;47.30;;;;;;5090748;28;20049;-69
2022/04/24 10:54:13;;;;;;;7.00;5.35;;;25.30;47.30;;;;;;5077243;28;20092;-71
2022/04/24 10:56:45;;;;;;;8.65;5.47;;;25.20;45.10;;;;;;5075965;28;20040;-71
2022/04/24 10:59:16;;;;;;;9.82;6.18;;;25.20;47.80;;;;;;5076392;28;20044;-70
2022/04/24 11:01:54;;;;;;;9.02;5.32;;;25.30;47.10;;;;;;5076062;28;20063;-73
2022/04/24 11:04:23;;;;;;;7.78;5.28;;;25.60;46.50;;;;;;5076830;28;20056;-70
2022/04/24 11:06:56;;;;;;;7.65;4.80;;;25.70;46.40;;;;;;5092649;28;20032;-71
2022/04/24 11:09:29;;;;;;;8.65;5.28;;;25.60;46.70;;;;;;5078750;28;20424;-71
2022/04/24 11:12:06;;;;;;;7.80;5.00;;;25.60;47.30;;;;;;5076104;28;20037;-75
2022/04/24 11:14:34;;;;;;;6.18;4.70;;;25.50;47.00;;;;;;5074032;28;20289;-73
2022/04/24 11:17:02;;;;;;;7.00;4.75;;;25.30;47.20;;;;;;5075832;28;20048;-74
2022/04/24 11:19:37;;;;;;;6.00;4.63;;;25.30;47.60;;;;;;5075877;28;20039;-75
2022/04/24 11:22:05;;;;;;;7.53;4.85;;;25.30;48.00;;;;;;5075631;28;20036;-74
2022/04/24 11:24:37;;;;;;;9.63;5.13;;;25.20;47.50;;;;;;5074487;28;20048;-74
2022/04/24 11:27:12;;;;;;;6.05;4.60;;;25.20;48.10;;;;;;5096335;28;20041;-74
2022/04/24 11:29:44;;;;;;;8.18;5.18;;;25.20;48.10;;;;;;5074100;28;20041;-74
2022/04/24 11:32:13;;;;;;;6.57;4.35;;;25.20;48.70;;;;;;5075798;28;20041;-75
2022/04/24 11:34:40;;;;;;;8.65;5.80;;;25.10;48.90;;;;;;5074561;28;20046;-77
2022/04/24 11:37:08;;;;;;;7.55;4.10;;;25.10;48.40;;;;;;5074435;28;20045;-76
2022/04/24 11:39:34;;;;;;;5.47;4.20;;;25.00;49.70;;;;;;5074184;28;20096;-73
2022/04/24 11:42:00;;;;;;;6.97;4.72;;;25.10;49.80;;;;;;5073702;28;20055;-77
2022/04/24 11:50:15;;;;;;;8.57;4.95;;;25.00;50.20;;;;;;5076226;28;20040;-78
2022/04/24 11:52:43;;;;;;;7.47;4.40;;;25.00;45.80;;;;;;5076199;28;20036;-78
2022/04/24 11:55:19;;;;;;;5.07;4.07;;;24.90;50.00;;;;;;5075752;28;20041;-80
2022/04/24 11:57:56;;;;;;;7.35;4.78;;;24.90;50.20;;;;;;5063363;28;20064;-80
2022/04/24 12:00:34;;;;;;;7.40;4.70;;;24.80;50.40;;;;;;5056035;28;20042;-81
2022/04/24 12:03:01;;;;;;;8.07;5.20;;;24.80;50.40;;;;;;5059780;28;20053;-82
2022/04/24 12:05:28;;;;;;;10.20;4.47;;;24.70;50.10;;;;;;5075734;28;20047;-80
2022/04/24 12:07:56;;;;;;;6.88;4.63;;;24.70;51.20;;;;;;5075631;28;20736;-76
2022/04/24 12:10:26;;;;;;;6.35;4.13;;;24.80;51.50;;;;;;5075207;28;20041;-83
2022/04/24 12:12:53;;;;;;;5.47;3.67;;;24.80;51.80;;;;;;5075899;28;20037;-80
2022/04/24 12:15:23;;;;;;;5.07;3.80;;;24.90;52.00;;;;;;5075421;28;20032;-74
2022/04/24 12:17:54;;;;;;;8.40;3.97;;;24.70;50.60;;;;;;5075894;28;20037;-78
2022/04/24 12:20:22;;;;;;;8.98;4.65;;;24.80;52.00;;;;;;5075608;28;20068;-80
2022/04/24 12:22:48;;;;;;;6.80;3.63;;;24.80;50.70;;;;;;5077670;28;20033;-81
2022/04/24 12:25:18;;;;;;;4.97;3.90;;;24.80;51.20;;;;;;5095168;28;20037;-78
2022/04/24 12:27:57;;;;;;;7.28;4.43;;;24.80;51.80;;;;;;5095412;28;20700;-78
2022/04/24 12:30:31;;;;;;;5.07;3.75;;;24.70;52.00;;;;;;5085555;28;20044;-76
2022/04/24 12:33:07;;;;;;;8.27;4.70;;;24.60;55.60;;;;;;5075850;28;20056;-75
2022/04/24 12:35:35;;;;;;;5.47;4.05;;;24.70;57.50;;;;;;5075367;28;20033;-74
2022/04/24 12:38:12;;;;;;;7.82;4.03;;;24.80;56.70;;;;;;5075686;28;20064;-74
2022/04/24 12:40:38;;;;;;;5.70;3.95;;;24.80;55.50;;;;;;5075297;28;20041;-74
2022/04/24 12:43:05;;;;;;;5.95;3.60;;;24.80;54.70;;;;;;5075265;28;20070;-77
2022/04/24 12:45:32;;;;;;;4.07;3.67;;;24.70;53.80;;;;;;5075398;28;20075;-73